Queenstown, New Zealand
Current Conditions -  °F | °C
As of 2:30 AM on Tuesday 23 Dec 2014 (Local Time) from NZCH Reporting Station
Overcast Overcast  
Wind Chill: 59°   Ceiling: 1300
Heat Index: 59°   Visibility: 6mi
Dew Point: 55°   Wind: 2mph
Humidity: 88%   Direction: 40°NE
Pressure: 30.21"   Gusts: NA
Location:  45.03°S, 168.66°E
Report Text: NZCH 221430Z AUTO 04002KT 9999 OVC013/// 15/13 Q1023 BECMGBKN018 TEMPO BKN008
Loading
Personal Weather Stations






























Interactive Weather Map New forecast layout! Learn more

10-Day Weather Forecast

Advertisements
Track Severe Weather on mobile